sensor_id;sensor_type;location;lat;lon;timestamp;P1;durP1;ratioP1;P2;durP2;ratioP2
30617;SDS011;17384;51.214;9.202;2023-05-31T00:02:06;35.30;;;12.50;;
30617;SDS011;17384;51.214;9.202;2023-05-31T00:04:33;27.98;;;12.45;;
30617;SDS011;17384;51.214;9.202;2023-05-31T00:06:59;21.85;;;12.05;;
30617;SDS011;17384;51.214;9.202;2023-05-31T00:09:25;27.73;;;12.20;;
30617;SDS011;17384;51.214;9.202;2023-05-31T00:11:50;29.48;;;12.27;;
30617;SDS011;17384;51.214;9.202;2023-05-31T00:14:16;26.48;;;13.07;;
30617;SDS011;17384;51.214;9.202;2023-05-31T00:16:41;21.05;;;11.85;;
30617;SDS011;17384;51.214;9.202;2023-05-31T00:19:07;24.85;;;10.65;;
30617;SDS011;17384;51.214;9.202;2023-05-31T00:21:32;24.80;;;11.88;;
30617;SDS011;17384;51.214;9.202;2023-05-31T00:23:58;29.33;;;12.48;;
30617;SDS011;17384;51.214;9.202;2023-05-31T00:26:23;27.42;;;12.07;;
30617;SDS011;17384;51.214;9.202;2023-05-31T00:28:50;20.67;;;11.45;;
30617;SDS011;17384;51.214;9.202;2023-05-31T00:31:15;26.83;;;11.95;;
30617;SDS011;17384;51.214;9.202;2023-05-31T00:33:43;20.85;;;11.70;;
30617;SDS011;17384;51.214;9.202;2023-05-31T00:36:08;21.58;;;12.05;;
30617;SDS011;17384;51.214;9.202;2023-05-31T00:38:34;25.95;;;12.43;;
30617;SDS011;17384;51.214;9.202;2023-05-31T00:40:59;31.98;;;11.75;;
30617;SDS011;17384;51.214;9.202;2023-05-31T00:43:25;21.67;;;11.77;;
30617;SDS011;17384;51.214;9.202;2023-05-31T00:45:50;23.38;;;11.75;;
30617;SDS011;17384;51.214;9.202;2023-05-31T00:48:16;20.25;;;12.77;;
30617;SDS011;17384;51.214;9.202;2023-05-31T00:50:42;18.90;;;11.45;;
30617;SDS011;17384;51.214;9.202;2023-05-31T00:53:08;28.55;;;11.57;;
30617;SDS011;17384;51.214;9.202;2023-05-31T00:55:33;31.00;;;12.48;;
30617;SDS011;17384;51.214;9.202;2023-05-31T00:58:00;18.17;;;10.50;;
30617;SDS011;17384;51.214;9.202;2023-05-31T01:00:27;19.13;;;11.10;;
30617;SDS011;17384;51.214;9.202;2023-05-31T01:02:53;25.92;;;11.02;;
30617;SDS011;17384;51.214;9.202;2023-05-31T01:05:19;25.85;;;11.82;;
30617;SDS011;17384;51.214;9.202;2023-05-31T01:07:44;19.50;;;11.02;;
30617;SDS011;17384;51.214;9.202;2023-05-31T01:10:10;24.05;;;11.43;;
30617;SDS011;17384;51.214;9.202;2023-05-31T01:15:33;18.85;;;10.82;;
30617;SDS011;17384;51.214;9.202;2023-05-31T01:20:44;21.40;;;10.85;;
30617;SDS011;17384;51.214;9.202;2023-05-31T01:25:56;24.23;;;11.65;;
30617;SDS011;17384;51.214;9.202;2023-05-31T01:28:31;22.67;;;11.43;;
30617;SDS011;17384;51.214;9.202;2023-05-31T01:31:01;24.60;;;10.85;;
30617;SDS011;17384;51.214;9.202;2023-05-31T01:33:29;25.27;;;11.35;;
30617;SDS011;17384;51.214;9.202;2023-05-31T01:35:56;23.98;;;11.20;;
30617;SDS011;17384;51.214;9.202;2023-05-31T01:38:21;22.13;;;10.70;;
30617;SDS011;17384;51.214;9.202;2023-05-31T01:40:47;24.05;;;11.95;;
30617;SDS011;17384;51.214;9.202;2023-05-31T01:43:13;20.92;;;12.48;;
30617;SDS011;17384;51.214;9.202;2023-05-31T01:45:39;26.75;;;12.40;;
30617;SDS011;17384;51.214;9.202;2023-05-31T01:48:06;21.90;;;11.43;;
30617;SDS011;17384;51.214;9.202;2023-05-31T01:50:34;28.40;;;11.93;;
30617;SDS011;17384;51.214;9.202;2023-05-31T01:53:01;24.60;;;11.27;;
30617;SDS011;17384;51.214;9.202;2023-05-31T01:55:26;27.13;;;12.75;;
30617;SDS011;17384;51.214;9.202;2023-05-31T01:57:52;22.90;;;12.50;;
30617;SDS011;17384;51.214;9.202;2023-05-31T02:00:21;21.92;;;10.82;;
30617;SDS011;17384;51.214;9.202;2023-05-31T02:02:47;26.25;;;11.90;;
30617;SDS011;17384;51.214;9.202;2023-05-31T02:05:15;24.02;;;11.25;;
30617;SDS011;17384;51.214;9.202;2023-05-31T02:07:41;23.77;;;11.73;;
30617;SDS011;17384;51.214;9.202;2023-05-31T02:10:07;30.25;;;11.52;;
30617;SDS011;17384;51.214;9.202;2023-05-31T02:12:33;21.83;;;12.38;;
30617;SDS011;17384;51.214;9.202;2023-05-31T02:14:59;20.85;;;11.02;;
30617;SDS011;17384;51.214;9.202;2023-05-31T02:17:25;19.13;;;11.15;;
30617;SDS011;17384;51.214;9.202;2023-05-31T02:19:51;18.85;;;10.80;;
30617;SDS011;17384;51.214;9.202;2023-05-31T02:22:17;20.50;;;10.52;;
30617;SDS011;17384;51.214;9.202;2023-05-31T02:24:43;21.02;;;11.38;;
30617;SDS011;17384;51.214;9.202;2023-05-31T02:27:09;27.45;;;12.32;;
30617;SDS011;17384;51.214;9.202;2023-05-31T02:29:35;26.25;;;12.32;;
30617;SDS011;17384;51.214;9.202;2023-05-31T02:32:00;21.38;;;11.85;;
30617;SDS011;17384;51.214;9.202;2023-05-31T02:34:27;26.90;;;11.73;;
30617;SDS011;17384;51.214;9.202;2023-05-31T02:36:53;21.92;;;11.10;;
30617;SDS011;17384;51.214;9.202;2023-05-31T02:39:18;27.25;;;12.40;;
30617;SDS011;17384;51.214;9.202;2023-05-31T02:41:44;24.50;;;13.15;;
30617;SDS011;17384;51.214;9.202;2023-05-31T02:44:10;20.85;;;11.35;;
30617;SDS011;17384;51.214;9.202;2023-05-31T02:46:35;21.23;;;11.63;;
30617;SDS011;17384;51.214;9.202;2023-05-31T02:49:01;25.33;;;11.45;;
30617;SDS011;17384;51.214;9.202;2023-05-31T02:51:27;27.08;;;13.13;;
30617;SDS011;17384;51.214;9.202;2023-05-31T02:53:53;24.50;;;13.32;;
30617;SDS011;17384;51.214;9.202;2023-05-31T02:56:18;29.55;;;12.75;;
30617;SDS011;17384;51.214;9.202;2023-05-31T02:58:45;24.77;;;13.05;;
30617;SDS011;17384;51.214;9.202;2023-05-31T03:01:11;28.15;;;12.98;;
30617;SDS011;17384;51.214;9.202;2023-05-31T03:03:36;35.63;;;13.73;;
30617;SDS011;17384;51.214;9.202;2023-05-31T03:06:01;32.47;;;13.05;;
30617;SDS011;17384;51.214;9.202;2023-05-31T03:08:27;36.15;;;14.20;;
30617;SDS011;17384;51.214;9.202;2023-05-31T03:10:53;34.03;;;14.18;;
30617;SDS011;17384;51.214;9.202;2023-05-31T03:13:18;36.60;;;13.90;;
30617;SDS011;17384;51.214;9.202;2023-05-31T03:15:44;30.27;;;13.40;;
30617;SDS011;17384;51.214;9.202;2023-05-31T03:18:09;22.05;;;11.88;;
30617;SDS011;17384;51.214;9.202;2023-05-31T03:20:35;24.90;;;12.20;;
30617;SDS011;17384;51.214;9.202;2023-05-31T03:23:00;27.67;;;12.98;;
30617;SDS011;17384;51.214;9.202;2023-05-31T03:25:27;29.05;;;11.98;;
30617;SDS011;17384;51.214;9.202;2023-05-31T03:27:52;26.90;;;13.10;;
30617;SDS011;17384;51.214;9.202;2023-05-31T03:30:18;30.50;;;12.57;;
30617;SDS011;17384;51.214;9.202;2023-05-31T03:32:43;23.77;;;12.00;;
30617;SDS011;17384;51.214;9.202;2023-05-31T03:35:09;26.00;;;12.57;;
30617;SDS011;17384;51.214;9.202;2023-05-31T03:37:34;27.58;;;12.35;;
30617;SDS011;17384;51.214;9.202;2023-05-31T03:40:00;26.05;;;12.45;;
30617;SDS011;17384;51.214;9.202;2023-05-31T03:42:25;25.77;;;12.82;;
30617;SDS011;17384;51.214;9.202;2023-05-31T03:44:51;28.67;;;14.05;;
30617;SDS011;17384;51.214;9.202;2023-05-31T03:47:16;22.63;;;12.15;;
30617;SDS011;17384;51.214;9.202;2023-05-31T03:49:42;22.30;;;11.70;;
30617;SDS011;17384;51.214;9.202;2023-05-31T03:52:08;25.10;;;12.77;;
30617;SDS011;17384;51.214;9.202;2023-05-31T03:54:37;25.08;;;12.68;;
30617;SDS011;17384;51.214;9.202;2023-05-31T03:57:03;23.55;;;12.60;;
30617;SDS011;17384;51.214;9.202;2023-05-31T03:59:28;26.10;;;12.65;;
30617;SDS011;17384;51.214;9.202;2023-05-31T04:01:54;23.40;;;12.18;;
30617;SDS011;17384;51.214;9.202;2023-05-31T04:04:20;24.73;;;13.45;;
30617;SDS011;17384;51.214;9.202;2023-05-31T04:06:45;30.58;;;12.98;;
30617;SDS011;17384;51.214;9.202;2023-05-31T04:09:11;27.88;;;13.25;;
30617;SDS011;17384;51.214;9.202;2023-05-31T04:11:36;27.42;;;12.95;;
30617;SDS011;17384;51.214;9.202;2023-05-31T04:14:02;31.90;;;15.07;;
30617;SDS011;17384;51.214;9.202;2023-05-31T04:16:27;24.00;;;13.70;;
30617;SDS011;17384;51.214;9.202;2023-05-31T04:18:53;34.42;;;14.55;;
30617;SDS011;17384;51.214;9.202;2023-05-31T04:21:18;29.13;;;14.02;;
30617;SDS011;17384;51.214;9.202;2023-05-31T04:23:44;33.78;;;14.10;;
30617;SDS011;17384;51.214;9.202;2023-05-31T04:26:10;29.13;;;14.05;;
30617;SDS011;17384;51.214;9.202;2023-05-31T04:28:41;32.22;;;14.48;;
30617;SDS011;17384;51.214;9.202;2023-05-31T04:31:07;28.02;;;14.40;;
30617;SDS011;17384;51.214;9.202;2023-05-31T04:33:32;24.88;;;13.95;;
30617;SDS011;17384;51.214;9.202;2023-05-31T04:35:58;25.63;;;13.73;;
30617;SDS011;17384;51.214;9.202;2023-05-31T04:38:24;21.98;;;11.43;;
30617;SDS011;17384;51.214;9.202;2023-05-31T04:40:52;26.50;;;13.80;;
30617;SDS011;17384;51.214;9.202;2023-05-31T04:43:20;27.58;;;13.07;;
30617;SDS011;17384;51.214;9.202;2023-05-31T04:45:46;22.92;;;12.55;;
30617;SDS011;17384;51.214;9.202;2023-05-31T04:48:12;22.95;;;12.57;;
30617;SDS011;17384;51.214;9.202;2023-05-31T04:50:40;23.42;;;11.82;;
30617;SDS011;17384;51.214;9.202;2023-05-31T04:53:05;34.60;;;13.65;;
30617;SDS011;17384;51.214;9.202;2023-05-31T04:55:31;22.10;;;11.73;;
30617;SDS011;17384;51.214;9.202;2023-05-31T04:57:56;25.88;;;11.60;;
30617;SDS011;17384;51.214;9.202;2023-05-31T05:00:22;23.85;;;11.98;;
30617;SDS011;17384;51.214;9.202;2023-05-31T05:02:47;20.38;;;12.45;;
30617;SDS011;17384;51.214;9.202;2023-05-31T05:05:13;21.65;;;11.73;;
30617;SDS011;17384;51.214;9.202;2023-05-31T05:07:40;22.38;;;11.75;;
30617;SDS011;17384;51.214;9.202;2023-05-31T05:10:06;22.75;;;11.23;;
30617;SDS011;17384;51.214;9.202;2023-05-31T05:12:32;30.50;;;11.80;;
30617;SDS011;17384;51.214;9.202;2023-05-31T05:14:57;20.75;;;10.40;;
30617;SDS011;17384;51.214;9.202;2023-05-31T05:17:23;19.73;;;10.93;;
30617;SDS011;17384;51.214;9.202;2023-05-31T05:19:48;19.92;;;10.48;;
30617;SDS011;17384;51.214;9.202;2023-05-31T05:22:14;17.52;;;10.38;;
30617;SDS011;17384;51.214;9.202;2023-05-31T05:24:39;20.77;;;10.55;;
30617;SDS011;17384;51.214;9.202;2023-05-31T05:27:05;22.50;;;9.63;;
30617;SDS011;17384;51.214;9.202;2023-05-31T05:29:31;26.08;;;10.73;;
30617;SDS011;17384;51.214;9.202;2023-05-31T05:31:56;21.27;;;10.25;;
30617;SDS011;17384;51.214;9.202;2023-05-31T05:34:22;19.73;;;9.90;;
30617;SDS011;17384;51.214;9.202;2023-05-31T05:36:47;16.77;;;10.13;;
30617;SDS011;17384;51.214;9.202;2023-05-31T05:39:13;22.00;;;9.98;;
30617;SDS011;17384;51.214;9.202;2023-05-31T05:41:38;19.42;;;8.90;;
30617;SDS011;17384;51.214;9.202;2023-05-31T05:44:04;18.98;;;9.43;;
30617;SDS011;17384;51.214;9.202;2023-05-31T05:46:29;23.00;;;9.43;;
30617;SDS011;17384;51.214;9.202;2023-05-31T05:48:54;16.13;;;8.38;;
30617;SDS011;17384;51.214;9.202;2023-05-31T05:51:20;17.13;;;9.00;;
30617;SDS011;17384;51.214;9.202;2023-05-31T05:53:45;20.08;;;9.40;;
30617;SDS011;17384;51.214;9.202;2023-05-31T05:56:11;15.93;;;9.27;;
30617;SDS011;17384;51.214;9.202;2023-05-31T05:58:38;26.10;;;9.32;;
30617;SDS011;17384;51.214;9.202;2023-05-31T06:01:03;15.95;;;8.73;;
30617;SDS011;17384;51.214;9.202;2023-05-31T06:03:29;18.63;;;8.65;;
30617;SDS011;17384;51.214;9.202;2023-05-31T06:05:55;20.42;;;8.55;;
30617;SDS011;17384;51.214;9.202;2023-05-31T06:08:21;15.88;;;8.77;;
30617;SDS011;17384;51.214;9.202;2023-05-31T06:10:46;14.38;;;7.75;;
30617;SDS011;17384;51.214;9.202;2023-05-31T06:13:12;17.30;;;8.40;;
30617;SDS011;17384;51.214;9.202;2023-05-31T06:15:37;17.45;;;7.70;;
30617;SDS011;17384;51.214;9.202;2023-05-31T06:18:03;13.20;;;8.50;;
30617;SDS011;17384;51.214;9.202;2023-05-31T06:20:28;16.38;;;7.93;;
30617;SDS011;17384;51.214;9.202;2023-05-31T06:22:54;12.70;;;7.63;;
30617;SDS011;17384;51.214;9.202;2023-05-31T06:25:19;18.15;;;6.75;;
30617;SDS011;17384;51.214;9.202;2023-05-31T06:27:45;14.13;;;6.95;;
30617;SDS011;17384;51.214;9.202;2023-05-31T06:30:14;13.00;;;7.15;;
30617;SDS011;17384;51.214;9.202;2023-05-31T06:32:40;10.45;;;6.30;;
30617;SDS011;17384;51.214;9.202;2023-05-31T06:35:06;13.07;;;6.80;;
30617;SDS011;17384;51.214;9.202;2023-05-31T06:37:31;16.58;;;6.53;;
30617;SDS011;17384;51.214;9.202;2023-05-31T06:39:57;14.38;;;6.40;;
30617;SDS011;17384;51.214;9.202;2023-05-31T06:42:22;8.25;;;5.93;;
30617;SDS011;17384;51.214;9.202;2023-05-31T06:44:48;15.98;;;6.07;;
30617;SDS011;17384;51.214;9.202;2023-05-31T06:47:14;12.38;;;6.82;;
30617;SDS011;17384;51.214;9.202;2023-05-31T06:49:39;10.57;;;5.60;;
30617;SDS011;17384;51.214;9.202;2023-05-31T06:52:05;10.48;;;6.80;;
30617;SDS011;17384;51.214;9.202;2023-05-31T06:54:33;16.58;;;6.80;;
30617;SDS011;17384;51.214;9.202;2023-05-31T06:57:00;15.23;;;6.63;;
30617;SDS011;17384;51.214;9.202;2023-05-31T06:59:25;10.00;;;5.53;;
30617;SDS011;17384;51.214;9.202;2023-05-31T07:01:51;10.98;;;5.53;;
30617;SDS011;17384;51.214;9.202;2023-05-31T07:04:17;14.30;;;5.28;;
30617;SDS011;17384;51.214;9.202;2023-05-31T07:06:43;11.60;;;5.78;;
30617;SDS011;17384;51.214;9.202;2023-05-31T07:09:08;16.63;;;5.72;;
30617;SDS011;17384;51.214;9.202;2023-05-31T07:11:34;15.68;;;5.88;;
30617;SDS011;17384;51.214;9.202;2023-05-31T07:13:59;13.68;;;5.85;;
30617;SDS011;17384;51.214;9.202;2023-05-31T07:16:26;9.75;;;5.45;;
30617;SDS011;17384;51.214;9.202;2023-05-31T07:18:53;8.48;;;4.70;;
30617;SDS011;17384;51.214;9.202;2023-05-31T07:21:18;17.83;;;5.80;;
30617;SDS011;17384;51.214;9.202;2023-05-31T07:23:44;10.98;;;4.93;;
30617;SDS011;17384;51.214;9.202;2023-05-31T07:26:09;15.20;;;5.80;;
30617;SDS011;17384;51.214;9.202;2023-05-31T07:28:35;12.55;;;5.05;;
30617;SDS011;17384;51.214;9.202;2023-05-31T07:31:00;8.13;;;4.28;;
30617;SDS011;17384;51.214;9.202;2023-05-31T07:33:26;12.30;;;4.43;;
30617;SDS011;17384;51.214;9.202;2023-05-31T07:35:51;11.40;;;5.07;;
30617;SDS011;17384;51.214;9.202;2023-05-31T07:38:17;7.53;;;4.38;;
30617;SDS011;17384;51.214;9.202;2023-05-31T07:40:42;11.07;;;5.00;;
30617;SDS011;17384;51.214;9.202;2023-05-31T07:43:08;13.60;;;4.80;;
30617;SDS011;17384;51.214;9.202;2023-05-31T07:45:35;10.35;;;4.68;;
30617;SDS011;17384;51.214;9.202;2023-05-31T07:48:01;12.43;;;4.63;;
30617;SDS011;17384;51.214;9.202;2023-05-31T07:50:26;7.97;;;3.70;;
30617;SDS011;17384;51.214;9.202;2023-05-31T07:52:52;10.35;;;4.28;;
30617;SDS011;17384;51.214;9.202;2023-05-31T07:55:17;9.15;;;4.10;;
30617;SDS011;17384;51.214;9.202;2023-05-31T07:57:43;9.27;;;3.30;;
30617;SDS011;17384;51.214;9.202;2023-05-31T08:00:09;11.70;;;3.90;;
30617;SDS011;17384;51.214;9.202;2023-05-31T08:02:38;9.52;;;3.33;;
30617;SDS011;17384;51.214;9.202;2023-05-31T08:05:04;7.53;;;3.42;;
30617;SDS011;17384;51.214;9.202;2023-05-31T08:07:30;8.90;;;3.00;;
30617;SDS011;17384;51.214;9.202;2023-05-31T08:09:56;4.15;;;2.78;;
30617;SDS011;17384;51.214;9.202;2023-05-31T08:12:21;10.73;;;3.20;;
30617;SDS011;17384;51.214;9.202;2023-05-31T08:14:47;5.95;;;2.40;;
30617;SDS011;17384;51.214;9.202;2023-05-31T08:17:12;8.57;;;3.00;;
30617;SDS011;17384;51.214;9.202;2023-05-31T08:19:38;6.57;;;2.85;;
30617;SDS011;17384;51.214;9.202;2023-05-31T08:22:04;4.30;;;2.40;;
30617;SDS011;17384;51.214;9.202;2023-05-31T08:24:30;9.10;;;2.72;;
30617;SDS011;17384;51.214;9.202;2023-05-31T08:26:55;5.40;;;2.72;;
30617;SDS011;17384;51.214;9.202;2023-05-31T08:29:21;6.93;;;2.85;;
30617;SDS011;17384;51.214;9.202;2023-05-31T08:31:47;4.57;;;2.28;;
30617;SDS011;17384;51.214;9.202;2023-05-31T08:34:13;9.80;;;3.53;;
30617;SDS011;17384;51.214;9.202;2023-05-31T08:36:39;6.68;;;2.80;;
30617;SDS011;17384;51.214;9.202;2023-05-31T08:39:05;5.18;;;2.63;;
30617;SDS011;17384;51.214;9.202;2023-05-31T08:41:33;5.40;;;2.08;;
30617;SDS011;17384;51.214;9.202;2023-05-31T08:44:11;7.18;;;2.15;;
30617;SDS011;17384;51.214;9.202;2023-05-31T08:46:39;9.95;;;2.67;;
30617;SDS011;17384;51.214;9.202;2023-05-31T08:49:08;5.22;;;2.17;;
30617;SDS011;17384;51.214;9.202;2023-05-31T08:51:36;5.68;;;2.03;;
30617;SDS011;17384;51.214;9.202;2023-05-31T08:54:02;8.00;;;2.70;;
30617;SDS011;17384;51.214;9.202;2023-05-31T08:56:29;4.70;;;2.65;;
30617;SDS011;17384;51.214;9.202;2023-05-31T08:58:56;6.13;;;2.58;;
30617;SDS011;17384;51.214;9.202;2023-05-31T09:01:22;21.50;;;11.07;;
30617;SDS011;17384;51.214;9.202;2023-05-31T09:03:49;37.22;;;18.10;;
30617;SDS011;17384;51.214;9.202;2023-05-31T09:06:16;29.77;;;10.73;;
30617;SDS011;17384;51.214;9.202;2023-05-31T09:08:42;10.73;;;3.20;;
30617;SDS011;17384;51.214;9.202;2023-05-31T09:11:08;7.63;;;2.55;;
30617;SDS011;17384;51.214;9.202;2023-05-31T09:13:34;23.27;;;9.88;;
30617;SDS011;17384;51.214;9.202;2023-05-31T09:16:00;36.97;;;16.00;;
30617;SDS011;17384;51.214;9.202;2023-05-31T09:18:26;10.07;;;3.42;;
30617;SDS011;17384;51.214;9.202;2023-05-31T09:20:57;8.45;;;2.85;;
30617;SDS011;17384;51.214;9.202;2023-05-31T09:23:34;7.32;;;2.45;;
30617;SDS011;17384;51.214;9.202;2023-05-31T09:25:59;7.15;;;2.53;;
30617;SDS011;17384;51.214;9.202;2023-05-31T09:28:25;6.32;;;1.92;;
30617;SDS011;17384;51.214;9.202;2023-05-31T09:31:07;5.45;;;2.50;;
30617;SDS011;17384;51.214;9.202;2023-05-31T09:33:42;6.05;;;2.22;;
30617;SDS011;17384;51.214;9.202;2023-05-31T09:36:10;6.70;;;2.70;;
30617;SDS011;17384;51.214;9.202;2023-05-31T09:38:37;6.38;;;2.15;;
30617;SDS011;17384;51.214;9.202;2023-05-31T09:41:15;6.60;;;2.05;;
30617;SDS011;17384;51.214;9.202;2023-05-31T09:43:42;7.95;;;2.20;;
30617;SDS011;17384;51.214;9.202;2023-05-31T09:46:15;8.13;;;2.50;;
30617;SDS011;17384;51.214;9.202;2023-05-31T09:48:45;5.05;;;2.00;;
30617;SDS011;17384;51.214;9.202;2023-05-31T09:51:21;5.00;;;2.03;;
30617;SDS011;17384;51.214;9.202;2023-05-31T09:53:46;4.72;;;2.20;;
30617;SDS011;17384;51.214;9.202;2023-05-31T09:56:18;3.58;;;2.00;;
30617;SDS011;17384;51.214;9.202;2023-05-31T09:58:47;4.20;;;2.00;;
30617;SDS011;17384;51.214;9.202;2023-05-31T10:01:14;4.78;;;1.92;;
30617;SDS011;17384;51.214;9.202;2023-05-31T10:03:40;7.00;;;2.03;;
30617;SDS011;17384;51.214;9.202;2023-05-31T10:06:07;7.22;;;3.13;;
30617;SDS011;17384;51.214;9.202;2023-05-31T10:08:41;5.07;;;2.42;;
30617;SDS011;17384;51.214;9.202;2023-05-31T10:11:07;10.10;;;2.25;;
30617;SDS011;17384;51.214;9.202;2023-05-31T10:13:38;4.97;;;1.80;;
30617;SDS011;17384;51.214;9.202;2023-05-31T10:16:10;3.95;;;1.70;;
30617;SDS011;17384;51.214;9.202;2023-05-31T10:18:41;10.15;;;2.33;;
30617;SDS011;17384;51.214;9.202;2023-05-31T10:21:19;7.85;;;2.10;;
30617;SDS011;17384;51.214;9.202;2023-05-31T10:23:57;6.32;;;2.10;;
30617;SDS011;17384;51.214;9.202;2023-05-31T10:26:27;8.27;;;2.00;;
30617;SDS011;17384;51.214;9.202;2023-05-31T10:29:43;3.65;;;1.95;;
30617;SDS011;17384;51.214;9.202;2023-05-31T10:31:55;5.88;;;2.05;;
30617;SDS011;17384;51.214;9.202;2023-05-31T10:34:33;4.40;;;1.73;;
30617;SDS011;17384;51.214;9.202;2023-05-31T10:36:59;6.28;;;2.47;;
30617;SDS011;17384;51.214;9.202;2023-05-31T10:39:35;6.07;;;2.50;;
30617;SDS011;17384;51.214;9.202;2023-05-31T10:42:18;4.88;;;1.92;;
30617;SDS011;17384;51.214;9.202;2023-05-31T10:44:47;6.80;;;2.08;;
30617;SDS011;17384;51.214;9.202;2023-05-31T10:47:24;3.78;;;2.00;;
30617;SDS011;17384;51.214;9.202;2023-05-31T10:49:59;2.50;;;1.65;;
30617;SDS011;17384;51.214;9.202;2023-05-31T10:52:28;3.65;;;1.45;;
30617;SDS011;17384;51.214;9.202;2023-05-31T10:55:14;5.07;;;1.92;;
30617;SDS011;17384;51.214;9.202;2023-05-31T10:57:53;3.80;;;1.58;;
30617;SDS011;17384;51.214;9.202;2023-05-31T11:00:22;4.82;;;1.75;;
30617;SDS011;17384;51.214;9.202;2023-05-31T11:02:50;4.07;;;2.15;;
30617;SDS011;17384;51.214;9.202;2023-05-31T11:05:22;5.22;;;1.92;;
30617;SDS011;17384;51.214;9.202;2023-05-31T11:07:58;6.28;;;2.00;;
30617;SDS011;17384;51.214;9.202;2023-05-31T11:10:27;5.10;;;2.03;;
30617;SDS011;17384;51.214;9.202;2023-05-31T11:12:57;9.68;;;1.85;;
30617;SDS011;17384;51.214;9.202;2023-05-31T11:15:42;5.07;;;1.95;;
30617;SDS011;17384;51.214;9.202;2023-05-31T11:18:09;8.35;;;2.10;;
30617;SDS011;17384;51.214;9.202;2023-05-31T11:20:38;3.67;;;1.88;;
30617;SDS011;17384;51.214;9.202;2023-05-31T11:28:49;3.78;;;1.90;;
30617;SDS011;17384;51.214;9.202;2023-05-31T11:34:22;5.40;;;2.08;;
30617;SDS011;17384;51.214;9.202;2023-05-31T11:36:50;6.97;;;2.42;;
30617;SDS011;17384;51.214;9.202;2023-05-31T11:39:16;7.45;;;2.28;;
30617;SDS011;17384;51.214;9.202;2023-05-31T11:41:45;3.80;;;1.92;;
30617;SDS011;17384;51.214;9.202;2023-05-31T11:44:11;5.18;;;2.20;;
30617;SDS011;17384;51.214;9.202;2023-05-31T11:46:39;7.03;;;2.13;;
30617;SDS011;17384;51.214;9.202;2023-05-31T11:49:09;3.33;;;2.20;;
30617;SDS011;17384;51.214;9.202;2023-05-31T11:51:35;7.05;;;2.15;;
30617;SDS011;17384;51.214;9.202;2023-05-31T11:54:03;4.35;;;2.60;;
30617;SDS011;17384;51.214;9.202;2023-05-31T11:56:31;4.65;;;1.90;;
30617;SDS011;17384;51.214;9.202;2023-05-31T11:59:03;6.90;;;2.25;;
30617;SDS011;17384;51.214;9.202;2023-05-31T12:01:36;7.82;;;2.10;;
30617;SDS011;17384;51.214;9.202;2023-05-31T12:04:03;5.95;;;2.20;;
30617;SDS011;17384;51.214;9.202;2023-05-31T12:06:28;5.32;;;2.00;;
30617;SDS011;17384;51.214;9.202;2023-05-31T12:08:54;6.82;;;2.00;;
30617;SDS011;17384;51.214;9.202;2023-05-31T12:11:20;4.32;;;1.85;;
30617;SDS011;17384;51.214;9.202;2023-05-31T12:13:49;5.65;;;1.73;;
30617;SDS011;17384;51.214;9.202;2023-05-31T12:16:14;5.65;;;1.83;;
30617;SDS011;17384;51.214;9.202;2023-05-31T12:18:40;4.60;;;1.88;;
30617;SDS011;17384;51.214;9.202;2023-05-31T12:21:06;5.20;;;2.10;;
30617;SDS011;17384;51.214;9.202;2023-05-31T12:23:33;4.70;;;1.95;;
30617;SDS011;17384;51.214;9.202;2023-05-31T12:25:58;7.28;;;1.90;;
30617;SDS011;17384;51.214;9.202;2023-05-31T12:28:25;3.70;;;1.80;;
30617;SDS011;17384;51.214;9.202;2023-05-31T12:30:55;6.80;;;2.10;;
30617;SDS011;17384;51.214;9.202;2023-05-31T12:33:21;7.22;;;2.00;;
30617;SDS011;17384;51.214;9.202;2023-05-31T12:35:47;4.05;;;1.73;;
30617;SDS011;17384;51.214;9.202;2023-05-31T12:38:12;6.13;;;1.77;;
30617;SDS011;17384;51.214;9.202;2023-05-31T12:40:49;5.97;;;1.80;;
30617;SDS011;17384;51.214;9.202;2023-05-31T12:43:17;4.10;;;1.65;;
30617;SDS011;17384;51.214;9.202;2023-05-31T12:45:43;11.30;;;2.45;;
30617;SDS011;17384;51.214;9.202;2023-05-31T12:48:09;4.20;;;2.17;;
30617;SDS011;17384;51.214;9.202;2023-05-31T12:50:36;4.13;;;1.83;;
30617;SDS011;17384;51.214;9.202;2023-05-31T12:53:08;7.65;;;2.10;;
30617;SDS011;17384;51.214;9.202;2023-05-31T12:55:33;4.93;;;1.60;;
30617;SDS011;17384;51.214;9.202;2023-05-31T12:57:59;7.00;;;1.85;;
30617;SDS011;17384;51.214;9.202;2023-05-31T13:00:26;3.80;;;1.80;;
30617;SDS011;17384;51.214;9.202;2023-05-31T13:02:51;8.27;;;2.13;;
30617;SDS011;17384;51.214;9.202;2023-05-31T13:05:19;10.07;;;2.58;;
30617;SDS011;17384;51.214;9.202;2023-05-31T13:07:45;4.43;;;2.00;;
30617;SDS011;17384;51.214;9.202;2023-05-31T13:10:11;3.50;;;1.98;;
30617;SDS011;17384;51.214;9.202;2023-05-31T13:12:37;3.90;;;1.75;;
30617;SDS011;17384;51.214;9.202;2023-05-31T13:15:03;3.72;;;2.17;;
30617;SDS011;17384;51.214;9.202;2023-05-31T13:17:29;8.27;;;2.53;;
30617;SDS011;17384;51.214;9.202;2023-05-31T13:19:55;9.90;;;2.40;;
30617;SDS011;17384;51.214;9.202;2023-05-31T13:22:22;3.47;;;1.90;;
30617;SDS011;17384;51.214;9.202;2023-05-31T13:24:48;5.95;;;2.10;;
30617;SDS011;17384;51.214;9.202;2023-05-31T13:27:13;5.07;;;1.92;;
30617;SDS011;17384;51.214;9.202;2023-05-31T13:29:39;4.32;;;1.75;;
30617;SDS011;17384;51.214;9.202;2023-05-31T13:32:05;9.73;;;2.47;;
30617;SDS011;17384;51.214;9.202;2023-05-31T13:34:32;6.50;;;2.28;;
30617;SDS011;17384;51.214;9.202;2023-05-31T13:36:57;4.32;;;2.30;;
30617;SDS011;17384;51.214;9.202;2023-05-31T13:39:23;6.32;;;2.75;;
30617;SDS011;17384;51.214;9.202;2023-05-31T13:41:49;3.83;;;2.10;;
30617;SDS011;17384;51.214;9.202;2023-05-31T13:44:15;8.65;;;2.20;;
30617;SDS011;17384;51.214;9.202;2023-05-31T13:46:41;5.55;;;2.22;;
30617;SDS011;17384;51.214;9.202;2023-05-31T13:49:08;6.82;;;2.15;;
30617;SDS011;17384;51.214;9.202;2023-05-31T13:51:33;5.15;;;1.67;;
30617;SDS011;17384;51.214;9.202;2023-05-31T13:53:59;9.57;;;2.05;;
30617;SDS011;17384;51.214;9.202;2023-05-31T13:56:25;5.43;;;1.80;;
30617;SDS011;17384;51.214;9.202;2023-05-31T13:58:51;10.98;;;2.53;;
30617;SDS011;17384;51.214;9.202;2023-05-31T14:01:17;5.60;;;2.35;;
30617;SDS011;17384;51.214;9.202;2023-05-31T14:03:43;9.38;;;2.50;;
30617;SDS011;17384;51.214;9.202;2023-05-31T14:06:09;6.25;;;2.88;;
30617;SDS011;17384;51.214;9.202;2023-05-31T14:08:35;7.47;;;2.20;;
30617;SDS011;17384;51.214;9.202;2023-05-31T14:11:01;8.25;;;2.42;;
30617;SDS011;17384;51.214;9.202;2023-05-31T14:13:26;3.42;;;2.10;;
30617;SDS011;17384;51.214;9.202;2023-05-31T14:15:54;3.83;;;2.20;;
30617;SDS011;17384;51.214;9.202;2023-05-31T14:18:21;11.95;;;2.75;;
30617;SDS011;17384;51.214;9.202;2023-05-31T14:20:48;5.72;;;2.47;;
30617;SDS011;17384;51.214;9.202;2023-05-31T14:23:16;6.88;;;1.77;;
30617;SDS011;17384;51.214;9.202;2023-05-31T14:25:43;7.60;;;2.25;;
30617;SDS011;17384;51.214;9.202;2023-05-31T14:28:09;10.07;;;2.30;;
30617;SDS011;17384;51.214;9.202;2023-05-31T14:30:34;4.95;;;2.38;;
30617;SDS011;17384;51.214;9.202;2023-05-31T14:33:00;7.38;;;2.33;;
30617;SDS011;17384;51.214;9.202;2023-05-31T14:35:26;7.78;;;2.55;;
30617;SDS011;17384;51.214;9.202;2023-05-31T14:37:52;6.40;;;2.40;;
30617;SDS011;17384;51.214;9.202;2023-05-31T14:40:17;8.43;;;2.78;;
30617;SDS011;17384;51.214;9.202;2023-05-31T14:42:43;5.28;;;2.10;;
30617;SDS011;17384;51.214;9.202;2023-05-31T14:45:09;6.38;;;2.10;;
30617;SDS011;17384;51.214;9.202;2023-05-31T14:47:35;6.95;;;2.75;;
30617;SDS011;17384;51.214;9.202;2023-05-31T14:50:04;11.38;;;2.60;;
30617;SDS011;17384;51.214;9.202;2023-05-31T14:52:30;8.07;;;2.85;;